Paramount Helsinki — 2CWB3 — position and weather

sailwx.info

Track history (hours):
 
Tides and Currents Weather Stations Pressure Air Temp Water Temp Dewpoint Dewpoint Depression Visibility Wind Speed Wind Dir Waves Ship Positions

Paramount Helsinki

Last reported at 2014-Oct-29 03:27 UTC. Time now 2014-Oct-30 16:06 UTC.
Position N 29°08' W 094°31'.

Length 250 m; draft 9.6 m.

Type: Ship. MMSI: 235076275.

Date/timePositionNaut miles runAvg speedWind from/ knotsBaromVisibWave heightAir tempDewpointWater temp
2014-Oct-29 03:27N 29°08' W 094°31'0 0.0
2014-Oct-29 02:27N 29°08' W 094°31'  
2014-Oct-26 06:24N 29°08' W 094°31'0 0.0
2014-Oct-26 02:15N 29°08' W 094°31'0 0.0
2014-Oct-25 14:15N 29°08' W 094°31'0 0.0
2014-Oct-25 12:03N 29°08' W 094°31'0 0.0
2014-Oct-24 14:33N 29°08' W 094°31'0 0.0
2014-Oct-24 12:33N 29°08' W 094°31'0 0.0
2014-Oct-24 11:18N 29°08' W 094°31'0 0.1
2014-Oct-24 10:23N 29°08' W 094°31'  
2014-Oct-21 16:30N 28°37' W 094°18'8 7.3
2014-Oct-21 15:22N 28°45' W 094°21'34 2.4
2014-Oct-21 01:17N 29°16' W 094°37'810.9
2014-Oct-21 00:32N 29°21' W 094°44'1010.7
2014-Oct-20 23:33N 29°29' W 094°51'1211.6
2014-Oct-20 22:33N 29°39' W 094°58'6 5.7
2014-Oct-20 21:33N 29°44' W 095°01'0 0.0
2014-Oct-20 20:18N 29°44' W 095°01'0 0.0
2014-Oct-20 19:24N 29°44' W 095°01'0 0.0
2014-Oct-20 18:27N 29°44' W 095°01'0 0.0
2014-Oct-20 17:30N 29°44' W 095°01'0 0.0
2014-Oct-20 16:18N 29°44' W 095°01'0 0.0
2014-Oct-20 15:06N 29°44' W 095°01'0 0.0
2014-Oct-20 13:15N 29°44' W 095°01'0 0.0
2014-Oct-20 12:30N 29°44' W 095°01'0 0.0
2014-Oct-20 09:09N 29°44' W 095°01'0 0.0
2014-Oct-20 08:12N 29°44' W 095°01'0 0.0
2014-Oct-20 07:30N 29°44' W 095°01'0 0.0
2014-Oct-20 06:30N 29°44' W 095°01'0 0.0
2014-Oct-20 05:12N 29°44' W 095°01'0 0.0
2014-Oct-20 04:30N 29°44' W 095°01'0 0.0
2014-Oct-20 03:27N 29°44' W 095°01'0 0.0
2014-Oct-20 02:33N 29°44' W 095°01'0 0.0
2014-Oct-20 01:27N 29°44' W 095°01'0 0.0
2014-Oct-20 00:21N 29°44' W 095°01'0 0.0
2014-Oct-19 23:30N 29°44' W 095°01'0 0.0
2014-Oct-19 21:24N 29°44' W 095°01'0 0.0
2014-Oct-19 19:27N 29°44' W 095°01'0 0.0
2014-Oct-19 18:27N 29°44' W 095°01'0 0.0
2014-Oct-19 17:33N 29°44' W 095°01'0 0.2
2014-Oct-19 16:33N 29°44' W 095°01'6 6.5
2014-Oct-19 15:33N 29°38' W 094°58'1010.2
2014-Oct-19 14:33N 29°29' W 094°52'10 9.8
2014-Oct-19 13:33N 29°21' W 094°46'  
Track history (hours):
 
Tides and Currents Weather Stations Pressure Air Temp Water Temp Dewpoint Dewpoint Depression Visibility Wind Speed Wind Dir Waves Ship Positions

Paramount Helsinki

Last reported at 2014-Oct-29 03:27 UTC. Time now 2014-Oct-30 16:06 UTC.
Position N 29°08' W 094°31'.

Length 250 m; draft 9.6 m.

Type: Ship. MMSI: 235076275.

Date/timePositionNaut miles runAvg speedWind from/ knotsBaromVisibWave heightAir tempDewpointWater temp
2014-Oct-29 03:27N 29°08' W 094°31'0 0.0
2014-Oct-29 02:27N 29°08' W 094°31'  
2014-Oct-26 06:24N 29°08' W 094°31'0 0.0
2014-Oct-26 02:15N 29°08' W 094°31'0 0.0
2014-Oct-25 14:15N 29°08' W 094°31'0 0.0
2014-Oct-25 12:03N 29°08' W 094°31'0 0.0
2014-Oct-24 14:33N 29°08' W 094°31'0 0.0
2014-Oct-24 12:33N 29°08' W 094°31'0 0.0
2014-Oct-24 11:18N 29°08' W 094°31'0 0.1
2014-Oct-24 10:23N 29°08' W 094°31'  
2014-Oct-21 16:30N 28°37' W 094°18'8 7.3
2014-Oct-21 15:22N 28°45' W 094°21'34 2.4
2014-Oct-21 01:17N 29°16' W 094°37'810.9
2014-Oct-21 00:32N 29°21' W 094°44'1010.7
2014-Oct-20 23:33N 29°29' W 094°51'1211.6
2014-Oct-20 22:33N 29°39' W 094°58'6 5.7
2014-Oct-20 21:33N 29°44' W 095°01'0 0.0
2014-Oct-20 20:18N 29°44' W 095°01'0 0.0
2014-Oct-20 19:24N 29°44' W 095°01'0 0.0
2014-Oct-20 18:27N 29°44' W 095°01'0 0.0
2014-Oct-20 17:30N 29°44' W 095°01'0 0.0
2014-Oct-20 16:18N 29°44' W 095°01'0 0.0
2014-Oct-20 15:06N 29°44' W 095°01'0 0.0
2014-Oct-20 13:15N 29°44' W 095°01'0 0.0
2014-Oct-20 12:30N 29°44' W 095°01'0 0.0
2014-Oct-20 09:09N 29°44' W 095°01'0 0.0
2014-Oct-20 08:12N 29°44' W 095°01'0 0.0
2014-Oct-20 07:30N 29°44' W 095°01'0 0.0
2014-Oct-20 06:30N 29°44' W 095°01'0 0.0
2014-Oct-20 05:12N 29°44' W 095°01'0 0.0
2014-Oct-20 04:30N 29°44' W 095°01'0 0.0
2014-Oct-20 03:27N 29°44' W 095°01'0 0.0
2014-Oct-20 02:33N 29°44' W 095°01'0 0.0
2014-Oct-20 01:27N 29°44' W 095°01'0 0.0
2014-Oct-20 00:21N 29°44' W 095°01'0 0.0
2014-Oct-19 23:30N 29°44' W 095°01'0 0.0
2014-Oct-19 21:24N 29°44' W 095°01'0 0.0
2014-Oct-19 19:27N 29°44' W 095°01'0 0.0
2014-Oct-19 18:27N 29°44' W 095°01'0 0.0
2014-Oct-19 17:33N 29°44' W 095°01'0 0.2
2014-Oct-19 16:33N 29°44' W 095°01'6 6.5
2014-Oct-19 15:33N 29°38' W 094°58'1010.2
2014-Oct-19 14:33N 29°29' W 094°52'10 9.8
2014-Oct-19 13:33N 29°21' W 094°46'  

Dump ship's entire track history